sensor_id;sensor_type;location;lat;lon;timestamp;temperature;humidity
16313;DHT22;8265;52.622;13.296;2023-05-07T00:00:07;8.20;88.70
16313;DHT22;8265;52.622;13.296;2023-05-07T00:05:28;8.10;88.90
16313;DHT22;8265;52.622;13.296;2023-05-07T00:10:49;8.00;90.20
16313;DHT22;8265;52.622;13.296;2023-05-07T00:16:10;8.00;89.70
16313;DHT22;8265;52.622;13.296;2023-05-07T00:21:30;8.00;89.70
16313;DHT22;8265;52.622;13.296;2023-05-07T00:26:52;8.10;89.60
16313;DHT22;8265;52.622;13.296;2023-05-07T00:32:12;8.00;89.10
16313;DHT22;8265;52.622;13.296;2023-05-07T00:37:33;8.10;89.10
16313;DHT22;8265;52.622;13.296;2023-05-07T00:42:54;8.10;89.10
16313;DHT22;8265;52.622;13.296;2023-05-07T00:48:15;7.80;89.70
16313;DHT22;8265;52.622;13.296;2023-05-07T00:53:37;7.90;89.60
16313;DHT22;8265;52.622;13.296;2023-05-07T00:58:58;8.00;89.40
16313;DHT22;8265;52.622;13.296;2023-05-07T01:04:19;7.90;90.10
16313;DHT22;8265;52.622;13.296;2023-05-07T01:09:40;7.80;90.90
16313;DHT22;8265;52.622;13.296;2023-05-07T01:15:01;7.90;90.90
16313;DHT22;8265;52.622;13.296;2023-05-07T01:20:22;7.90;91.00
16313;DHT22;8265;52.622;13.296;2023-05-07T01:25:42;8.00;89.80
16313;DHT22;8265;52.622;13.296;2023-05-07T01:31:04;8.00;89.40
16313;DHT22;8265;52.622;13.296;2023-05-07T01:36:25;8.00;89.50
16313;DHT22;8265;52.622;13.296;2023-05-07T01:41:46;8.00;89.90
16313;DHT22;8265;52.622;13.296;2023-05-07T01:47:07;8.00;89.90
16313;DHT22;8265;52.622;13.296;2023-05-07T01:52:28;8.00;89.90
16313;DHT22;8265;52.622;13.296;2023-05-07T01:57:49;8.00;89.20
16313;DHT22;8265;52.622;13.296;2023-05-07T02:03:10;8.00;89.10
16313;DHT22;8265;52.622;13.296;2023-05-07T02:08:31;8.00;87.80
16313;DHT22;8265;52.622;13.296;2023-05-07T02:13:52;8.00;87.20
16313;DHT22;8265;52.622;13.296;2023-05-07T02:19:13;8.00;87.60
16313;DHT22;8265;52.622;13.296;2023-05-07T02:24:34;8.00;87.70
16313;DHT22;8265;52.622;13.296;2023-05-07T02:29:55;8.00;87.00
16313;DHT22;8265;52.622;13.296;2023-05-07T02:35:16;8.10;87.00
16313;DHT22;8265;52.622;13.296;2023-05-07T02:40:37;8.10;86.40
16313;DHT22;8265;52.622;13.296;2023-05-07T02:46:07;8.00;86.70
16313;DHT22;8265;52.622;13.296;2023-05-07T02:51:20;8.00;86.40
16313;DHT22;8265;52.622;13.296;2023-05-07T02:56:40;8.00;87.10
16313;DHT22;8265;52.622;13.296;2023-05-07T03:02:01;8.00;86.10
16313;DHT22;8265;52.622;13.296;2023-05-07T03:07:22;8.00;85.70
16313;DHT22;8265;52.622;13.296;2023-05-07T03:12:43;8.00;85.70
16313;DHT22;8265;52.622;13.296;2023-05-07T03:18:04;8.00;86.00
16313;DHT22;8265;52.622;13.296;2023-05-07T03:23:25;8.00;85.50
16313;DHT22;8265;52.622;13.296;2023-05-07T03:28:46;8.00;85.50
16313;DHT22;8265;52.622;13.296;2023-05-07T03:34:07;7.90;85.30
16313;DHT22;8265;52.622;13.296;2023-05-07T03:39:28;7.80;85.80
16313;DHT22;8265;52.622;13.296;2023-05-07T03:44:49;7.90;86.40
16313;DHT22;8265;52.622;13.296;2023-05-07T03:50:10;7.80;86.70
16313;DHT22;8265;52.622;13.296;2023-05-07T03:55:31;8.00;86.40
16313;DHT22;8265;52.622;13.296;2023-05-07T04:00:52;8.00;85.70
16313;DHT22;8265;52.622;13.296;2023-05-07T04:06:13;8.00;86.30
16313;DHT22;8265;52.622;13.296;2023-05-07T04:11:35;8.00;86.20
16313;DHT22;8265;52.622;13.296;2023-05-07T04:16:55;8.10;85.60
16313;DHT22;8265;52.622;13.296;2023-05-07T04:22:16;8.10;84.70
16313;DHT22;8265;52.622;13.296;2023-05-07T04:27:37;8.10;84.40
16313;DHT22;8265;52.622;13.296;2023-05-07T04:32:58;8.20;84.90
16313;DHT22;8265;52.622;13.296;2023-05-07T04:38:19;8.20;83.90
16313;DHT22;8265;52.622;13.296;2023-05-07T04:43:40;8.30;83.40
16313;DHT22;8265;52.622;13.296;2023-05-07T04:49:01;8.50;82.60
16313;DHT22;8265;52.622;13.296;2023-05-07T04:54:22;8.60;81.90
16313;DHT22;8265;52.622;13.296;2023-05-07T04:59:43;8.60;82.60
16313;DHT22;8265;52.622;13.296;2023-05-07T05:05:04;8.60;81.20
16313;DHT22;8265;52.622;13.296;2023-05-07T05:10:25;8.60;81.20
16313;DHT22;8265;52.622;13.296;2023-05-07T05:15:46;8.60;80.80
16313;DHT22;8265;52.622;13.296;2023-05-07T05:21:07;8.60;80.50
16313;DHT22;8265;52.622;13.296;2023-05-07T05:26:28;8.80;79.70
16313;DHT22;8265;52.622;13.296;2023-05-07T05:31:49;8.80;79.40
16313;DHT22;8265;52.622;13.296;2023-05-07T05:37:10;8.60;80.60
16313;DHT22;8265;52.622;13.296;2023-05-07T05:42:31;9.00;79.40
16313;DHT22;8265;52.622;13.296;2023-05-07T05:47:52;9.20;78.80
16313;DHT22;8265;52.622;13.296;2023-05-07T05:53:13;9.20;77.70
16313;DHT22;8265;52.622;13.296;2023-05-07T05:58:34;9.00;78.80
16313;DHT22;8265;52.622;13.296;2023-05-07T06:03:55;9.40;77.00
16313;DHT22;8265;52.622;13.296;2023-05-07T06:09:16;9.60;77.20
16313;DHT22;8265;52.622;13.296;2023-05-07T06:14:37;9.70;77.20
16313;DHT22;8265;52.622;13.296;2023-05-07T06:19:58;9.90;76.30
16313;DHT22;8265;52.622;13.296;2023-05-07T06:25:19;9.70;76.40
16313;DHT22;8265;52.622;13.296;2023-05-07T06:30:40;9.80;76.50
16313;DHT22;8265;52.622;13.296;2023-05-07T06:36:01;10.10;75.80
16313;DHT22;8265;52.622;13.296;2023-05-07T06:41:22;10.50;75.10
16313;DHT22;8265;52.622;13.296;2023-05-07T06:46:43;10.30;74.90
16313;DHT22;8265;52.622;13.296;2023-05-07T06:52:04;10.20;75.20
16313;DHT22;8265;52.622;13.296;2023-05-07T06:57:25;10.50;73.60
16313;DHT22;8265;52.622;13.296;2023-05-07T07:02:46;10.70;72.70
16313;DHT22;8265;52.622;13.296;2023-05-07T07:08:07;10.80;73.10
16313;DHT22;8265;52.622;13.296;2023-05-07T07:13:28;11.00;73.60
16313;DHT22;8265;52.622;13.296;2023-05-07T07:18:49;11.40;71.90
16313;DHT22;8265;52.622;13.296;2023-05-07T07:24:09;11.50;70.90
16313;DHT22;8265;52.622;13.296;2023-05-07T07:29:30;11.70;70.70
16313;DHT22;8265;52.622;13.296;2023-05-07T07:34:51;11.40;70.50
16313;DHT22;8265;52.622;13.296;2023-05-07T07:40:13;11.10;71.20
16313;DHT22;8265;52.622;13.296;2023-05-07T07:45:34;11.10;71.90
16313;DHT22;8265;52.622;13.296;2023-05-07T07:50:54;11.50;72.30
16313;DHT22;8265;52.622;13.296;2023-05-07T07:56:15;11.70;70.40
16313;DHT22;8265;52.622;13.296;2023-05-07T08:01:36;11.50;70.20
16313;DHT22;8265;52.622;13.296;2023-05-07T08:06:57;11.50;69.90
16313;DHT22;8265;52.622;13.296;2023-05-07T08:12:18;11.50;70.20
16313;DHT22;8265;52.622;13.296;2023-05-07T08:17:39;11.70;68.70
16313;DHT22;8265;52.622;13.296;2023-05-07T08:23:00;12.10;67.20
16313;DHT22;8265;52.622;13.296;2023-05-07T08:28:21;12.20;66.70
16313;DHT22;8265;52.622;13.296;2023-05-07T08:33:42;12.20;67.40
16313;DHT22;8265;52.622;13.296;2023-05-07T08:39:03;12.30;66.60
16313;DHT22;8265;52.622;13.296;2023-05-07T08:44:25;12.50;65.90
16313;DHT22;8265;52.622;13.296;2023-05-07T08:49:45;12.70;65.20
16313;DHT22;8265;52.622;13.296;2023-05-07T08:55:07;12.80;65.10
16313;DHT22;8265;52.622;13.296;2023-05-07T09:00:27;12.90;62.90
16313;DHT22;8265;52.622;13.296;2023-05-07T09:05:48;12.90;63.60
16313;DHT22;8265;52.622;13.296;2023-05-07T09:11:09;13.10;64.40
16313;DHT22;8265;52.622;13.296;2023-05-07T09:16:30;13.70;63.80
16313;DHT22;8265;52.622;13.296;2023-05-07T09:22:01;13.70;62.80
16313;DHT22;8265;52.622;13.296;2023-05-07T09:27:12;14.20;61.90
16313;DHT22;8265;52.622;13.296;2023-05-07T09:32:36;14.20;60.80
16313;DHT22;8265;52.622;13.296;2023-05-07T09:37:55;14.40;60.20
16313;DHT22;8265;52.622;13.296;2023-05-07T09:43:15;14.20;61.00
16313;DHT22;8265;52.622;13.296;2023-05-07T09:48:37;14.00;61.20
16313;DHT22;8265;52.622;13.296;2023-05-07T09:53:57;14.10;61.00
16313;DHT22;8265;52.622;13.296;2023-05-07T09:59:18;14.30;61.20
16313;DHT22;8265;52.622;13.296;2023-05-07T10:04:39;14.90;58.40
16313;DHT22;8265;52.622;13.296;2023-05-07T10:10:00;14.40;59.40
16313;DHT22;8265;52.622;13.296;2023-05-07T10:15:21;14.30;61.10
16313;DHT22;8265;52.622;13.296;2023-05-07T10:20:43;14.50;61.00
16313;DHT22;8265;52.622;13.296;2023-05-07T10:26:04;14.90;59.80
16313;DHT22;8265;52.622;13.296;2023-05-07T10:31:47;15.40;58.10
16313;DHT22;8265;52.622;13.296;2023-05-07T10:36:45;15.80;57.10
16313;DHT22;8265;52.622;13.296;2023-05-07T10:42:10;16.40;56.60
16313;DHT22;8265;52.622;13.296;2023-05-07T10:47:27;16.90;55.70
16313;DHT22;8265;52.622;13.296;2023-05-07T10:53:12;16.60;54.70
16313;DHT22;8265;52.622;13.296;2023-05-07T11:03:30;16.00;55.80
16313;DHT22;8265;52.622;13.296;2023-05-07T11:14:13;15.50;57.30
16313;DHT22;8265;52.622;13.296;2023-05-07T11:19:52;16.00;56.20
16313;DHT22;8265;52.622;13.296;2023-05-07T11:24:54;16.00;55.40
16313;DHT22;8265;52.622;13.296;2023-05-07T11:30:18;15.50;54.70
16313;DHT22;8265;52.622;13.296;2023-05-07T11:35:36;15.00;56.30
16313;DHT22;8265;52.622;13.296;2023-05-07T11:40:58;15.30;56.30
16313;DHT22;8265;52.622;13.296;2023-05-07T11:46:18;16.20;55.30
16313;DHT22;8265;52.622;13.296;2023-05-07T11:51:39;16.30;54.00
16313;DHT22;8265;52.622;13.296;2023-05-07T11:57:00;17.20;52.90
16313;DHT22;8265;52.622;13.296;2023-05-07T12:02:22;17.60;52.20
16313;DHT22;8265;52.622;13.296;2023-05-07T12:07:42;17.40;50.60
16313;DHT22;8265;52.622;13.296;2023-05-07T12:13:08;16.60;52.60
16313;DHT22;8265;52.622;13.296;2023-05-07T12:18:24;16.50;54.30
16313;DHT22;8265;52.622;13.296;2023-05-07T12:23:46;16.60;52.50
16313;DHT22;8265;52.622;13.296;2023-05-07T12:29:06;15.90;52.00
16313;DHT22;8265;52.622;13.296;2023-05-07T12:34:27;16.30;52.90
16313;DHT22;8265;52.622;13.296;2023-05-07T12:39:49;16.80;52.70
16313;DHT22;8265;52.622;13.296;2023-05-07T12:45:15;17.60;50.10
16313;DHT22;8265;52.622;13.296;2023-05-07T12:50:31;17.80;49.70
16313;DHT22;8265;52.622;13.296;2023-05-07T12:55:55;17.70;50.40
16313;DHT22;8265;52.622;13.296;2023-05-07T13:01:12;17.80;51.20
16313;DHT22;8265;52.622;13.296;2023-05-07T13:06:33;17.40;50.20
16313;DHT22;8265;52.622;13.296;2023-05-07T13:11:54;17.20;50.70
16313;DHT22;8265;52.622;13.296;2023-05-07T13:17:15;17.00;51.00
16313;DHT22;8265;52.622;13.296;2023-05-07T13:22:36;17.00;51.10
16313;DHT22;8265;52.622;13.296;2023-05-07T13:27:57;17.10;51.50
16313;DHT22;8265;52.622;13.296;2023-05-07T13:33:18;17.00;51.30
16313;DHT22;8265;52.622;13.296;2023-05-07T13:38:39;17.50;51.50
16313;DHT22;8265;52.622;13.296;2023-05-07T13:44:00;17.60;49.50
16313;DHT22;8265;52.622;13.296;2023-05-07T13:49:21;18.10;47.50
16313;DHT22;8265;52.622;13.296;2023-05-07T13:54:42;17.50;47.80
16313;DHT22;8265;52.622;13.296;2023-05-07T14:00:04;18.40;48.30
16313;DHT22;8265;52.622;13.296;2023-05-07T14:05:24;18.40;48.00
16313;DHT22;8265;52.622;13.296;2023-05-07T14:10:45;18.50;47.40
16313;DHT22;8265;52.622;13.296;2023-05-07T14:16:06;19.30;45.70
16313;DHT22;8265;52.622;13.296;2023-05-07T14:21:27;20.30;44.30
16313;DHT22;8265;52.622;13.296;2023-05-07T14:26:48;21.10;42.10
16313;DHT22;8265;52.622;13.296;2023-05-07T14:32:09;21.50;42.10
16313;DHT22;8265;52.622;13.296;2023-05-07T14:37:30;21.20;43.70
16313;DHT22;8265;52.622;13.296;2023-05-07T14:42:51;22.30;41.40
16313;DHT22;8265;52.622;13.296;2023-05-07T14:48:12;22.30;41.50
16313;DHT22;8265;52.622;13.296;2023-05-07T14:53:33;19.50;44.20
16313;DHT22;8265;52.622;13.296;2023-05-07T14:58:54;19.20;46.90
16313;DHT22;8265;52.622;13.296;2023-05-07T15:04:15;20.40;45.90
16313;DHT22;8265;52.622;13.296;2023-05-07T15:09:36;20.70;43.60
16313;DHT22;8265;52.622;13.296;2023-05-07T15:14:57;20.50;42.50
16313;DHT22;8265;52.622;13.296;2023-05-07T15:20:18;20.00;43.60
16313;DHT22;8265;52.622;13.296;2023-05-07T15:25:39;18.80;45.40
16313;DHT22;8265;52.622;13.296;2023-05-07T15:31:00;20.50;43.40
16313;DHT22;8265;52.622;13.296;2023-05-07T15:36:21;20.60;43.40
16313;DHT22;8265;52.622;13.296;2023-05-07T15:41:42;21.50;43.30
16313;DHT22;8265;52.622;13.296;2023-05-07T15:47:03;21.10;41.70
16313;DHT22;8265;52.622;13.296;2023-05-07T15:52:24;20.80;42.80
16313;DHT22;8265;52.622;13.296;2023-05-07T15:57:45;19.40;45.00
16313;DHT22;8265;52.622;13.296;2023-05-07T16:03:06;18.40;46.50
16313;DHT22;8265;52.622;13.296;2023-05-07T16:08:27;18.10;46.90
16313;DHT22;8265;52.622;13.296;2023-05-07T16:13:48;18.20;47.50
16313;DHT22;8265;52.622;13.296;2023-05-07T16:19:09;19.50;43.70
16313;DHT22;8265;52.622;13.296;2023-05-07T16:24:30;19.70;42.30
16313;DHT22;8265;52.622;13.296;2023-05-07T16:29:51;17.80;46.40
16313;DHT22;8265;52.622;13.296;2023-05-07T16:35:12;17.00;48.80
16313;DHT22;8265;52.622;13.296;2023-05-07T16:40:35;17.00;48.00
16313;DHT22;8265;52.622;13.296;2023-05-07T16:45:54;16.50;50.20
16313;DHT22;8265;52.622;13.296;2023-05-07T16:51:15;17.90;47.70
16313;DHT22;8265;52.622;13.296;2023-05-07T16:56:36;17.40;48.00
16313;DHT22;8265;52.622;13.296;2023-05-07T17:01:57;16.70;49.50
16313;DHT22;8265;52.622;13.296;2023-05-07T17:07:18;18.90;46.50
16313;DHT22;8265;52.622;13.296;2023-05-07T17:12:39;17.50;48.20
16313;DHT22;8265;52.622;13.296;2023-05-07T17:18:00;19.20;45.40
16313;DHT22;8265;52.622;13.296;2023-05-07T17:23:21;19.40;44.30
16313;DHT22;8265;52.622;13.296;2023-05-07T17:28:42;19.40;44.20
16313;DHT22;8265;52.622;13.296;2023-05-07T17:34:03;19.50;43.60
16313;DHT22;8265;52.622;13.296;2023-05-07T17:39:24;18.20;45.00
16313;DHT22;8265;52.622;13.296;2023-05-07T17:44:45;16.40;49.50
16313;DHT22;8265;52.622;13.296;2023-05-07T17:50:07;15.10;51.50
16313;DHT22;8265;52.622;13.296;2023-05-07T17:55:28;14.00;53.40
16313;DHT22;8265;52.622;13.296;2023-05-07T18:00:48;13.50;55.00
16313;DHT22;8265;52.622;13.296;2023-05-07T18:06:09;13.30;55.60
16313;DHT22;8265;52.622;13.296;2023-05-07T18:11:30;13.20;56.00
16313;DHT22;8265;52.622;13.296;2023-05-07T18:16:51;13.30;55.30
16313;DHT22;8265;52.622;13.296;2023-05-07T18:22:12;13.30;56.00
16313;DHT22;8265;52.622;13.296;2023-05-07T18:27:33;13.10;56.50
16313;DHT22;8265;52.622;13.296;2023-05-07T18:32:54;12.90;56.50
16313;DHT22;8265;52.622;13.296;2023-05-07T18:38:15;12.80;57.30
16313;DHT22;8265;52.622;13.296;2023-05-07T18:43:36;12.70;57.20
16313;DHT22;8265;52.622;13.296;2023-05-07T18:48:57;12.70;57.40
16313;DHT22;8265;52.622;13.296;2023-05-07T18:54:18;12.50;57.20
16313;DHT22;8265;52.622;13.296;2023-05-07T18:59:39;12.30;57.60
16313;DHT22;8265;52.622;13.296;2023-05-07T19:05:00;12.10;58.50
16313;DHT22;8265;52.622;13.296;2023-05-07T19:10:21;11.70;58.50
16313;DHT22;8265;52.622;13.296;2023-05-07T19:15:42;11.60;59.20
16313;DHT22;8265;52.622;13.296;2023-05-07T19:21:03;11.40;59.40
16313;DHT22;8265;52.622;13.296;2023-05-07T19:26:24;11.10;60.90
16313;DHT22;8265;52.622;13.296;2023-05-07T19:31:45;11.00;61.40
16313;DHT22;8265;52.622;13.296;2023-05-07T19:37:06;10.70;63.60
16313;DHT22;8265;52.622;13.296;2023-05-07T19:42:27;10.60;63.30
16313;DHT22;8265;52.622;13.296;2023-05-07T19:47:48;10.50;63.60
16313;DHT22;8265;52.622;13.296;2023-05-07T19:53:09;10.50;62.80
16313;DHT22;8265;52.622;13.296;2023-05-07T19:58:30;10.60;62.90
16313;DHT22;8265;52.622;13.296;2023-05-07T20:03:51;10.20;64.50
16313;DHT22;8265;52.622;13.296;2023-05-07T20:09:12;10.10;65.00
16313;DHT22;8265;52.622;13.296;2023-05-07T20:14:33;10.10;64.30
16313;DHT22;8265;52.622;13.296;2023-05-07T20:19:54;10.00;64.60
16313;DHT22;8265;52.622;13.296;2023-05-07T20:25:15;10.00;64.40
16313;DHT22;8265;52.622;13.296;2023-05-07T20:30:36;9.90;64.50
16313;DHT22;8265;52.622;13.296;2023-05-07T20:35:57;9.70;65.80
16313;DHT22;8265;52.622;13.296;2023-05-07T20:41:18;9.40;67.50
16313;DHT22;8265;52.622;13.296;2023-05-07T20:46:39;9.20;68.40
16313;DHT22;8265;52.622;13.296;2023-05-07T20:52:00;9.10;68.50
16313;DHT22;8265;52.622;13.296;2023-05-07T20:57:21;9.20;68.20
16313;DHT22;8265;52.622;13.296;2023-05-07T21:02:43;9.20;68.60
16313;DHT22;8265;52.622;13.296;2023-05-07T21:08:03;9.20;69.20
16313;DHT22;8265;52.622;13.296;2023-05-07T21:13:24;9.20;68.70
16313;DHT22;8265;52.622;13.296;2023-05-07T21:18:45;9.40;67.90
16313;DHT22;8265;52.622;13.296;2023-05-07T21:24:06;9.30;68.80
16313;DHT22;8265;52.622;13.296;2023-05-07T21:29:27;9.20;68.80
16313;DHT22;8265;52.622;13.296;2023-05-07T21:34:48;9.20;68.70
16313;DHT22;8265;52.622;13.296;2023-05-07T21:40:09;9.20;69.20
16313;DHT22;8265;52.622;13.296;2023-05-07T21:45:30;9.10;69.00
16313;DHT22;8265;52.622;13.296;2023-05-07T21:50:58;9.00;69.00
16313;DHT22;8265;52.622;13.296;2023-05-07T21:56:12;9.00;69.20
16313;DHT22;8265;52.622;13.296;2023-05-07T22:01:33;8.90;69.50
16313;DHT22;8265;52.622;13.296;2023-05-07T22:06:54;8.80;69.50
16313;DHT22;8265;52.622;13.296;2023-05-07T22:12:15;8.60;70.30
16313;DHT22;8265;52.622;13.296;2023-05-07T22:17:36;8.60;70.50
16313;DHT22;8265;52.622;13.296;2023-05-07T22:22:57;8.60;70.90
16313;DHT22;8265;52.622;13.296;2023-05-07T22:28:18;8.60;70.70
16313;DHT22;8265;52.622;13.296;2023-05-07T22:33:39;8.40;71.50
16313;DHT22;8265;52.622;13.296;2023-05-07T22:39:00;8.40;71.50
16313;DHT22;8265;52.622;13.296;2023-05-07T22:44:21;8.40;71.10
16313;DHT22;8265;52.622;13.296;2023-05-07T22:49:42;8.20;71.90
16313;DHT22;8265;52.622;13.296;2023-05-07T22:55:03;8.00;73.00
16313;DHT22;8265;52.622;13.296;2023-05-07T23:00:24;8.00;72.90
16313;DHT22;8265;52.622;13.296;2023-05-07T23:05:45;7.80;73.50
16313;DHT22;8265;52.622;13.296;2023-05-07T23:11:06;7.80;73.40
16313;DHT22;8265;52.622;13.296;2023-05-07T23:16:27;7.80;73.20
16313;DHT22;8265;52.622;13.296;2023-05-07T23:21:48;7.80;74.00
16313;DHT22;8265;52.622;13.296;2023-05-07T23:27:09;7.70;74.10
16313;DHT22;8265;52.622;13.296;2023-05-07T23:32:30;7.60;74.20
16313;DHT22;8265;52.622;13.296;2023-05-07T23:37:51;7.60;74.00
16313;DHT22;8265;52.622;13.296;2023-05-07T23:43:12;7.50;74.90
16313;DHT22;8265;52.622;13.296;2023-05-07T23:48:33;7.20;76.10
16313;DHT22;8265;52.622;13.296;2023-05-07T23:53:54;7.00;77.10
16313;DHT22;8265;52.622;13.296;2023-05-07T23:59:15;6.90;78.00
